createdAt,value
2022-08-04T00:00:10.062Z,97784.00
2022-08-04T00:02:49.349Z,97788.03
2022-08-04T00:05:34.747Z,97783.38
2022-08-04T00:08:06.670Z,97780.16
2022-08-04T00:10:35.259Z,97779.34
2022-08-04T00:13:04.821Z,97780.97
2022-08-04T00:15:34.446Z,97776.31
2022-08-04T00:18:09.591Z,97771.19
2022-08-04T00:20:42.527Z,97774.25
2022-08-04T00:23:11.091Z,97774.56
2022-08-04T00:25:41.727Z,97782.72
2022-08-04T00:28:09.636Z,97778.22
2022-08-04T00:30:37.581Z,97784.16
2022-08-04T00:33:05.201Z,97784.31
2022-08-04T00:35:33.590Z,97785.91
2022-08-04T00:38:02.806Z,97775.00
2022-08-04T00:40:48.264Z,97781.75
2022-08-04T00:43:33.740Z,97777.88
2022-08-04T00:46:19.219Z,97782.69
2022-08-04T00:49:10.749Z,97778.88
2022-08-04T00:51:41.035Z,97771.34
2022-08-04T00:54:36.059Z,97776.28
2022-08-04T00:57:30.177Z,97784.81
2022-08-04T01:00:16.421Z,97777.44
2022-08-04T01:02:46.720Z,97781.75
2022-08-04T01:05:45.231Z,97782.53
2022-08-04T01:08:46.472Z,97779.34
2022-08-04T01:11:32.542Z,97784.47
2022-08-04T01:14:34.132Z,97776.13
2022-08-04T01:17:23.935Z,97787.03
2022-08-04T01:20:02.430Z,97797.94
2022-08-04T01:23:00.026Z,97780.00
2022-08-04T01:26:42.535Z,97777.56
2022-08-04T01:29:07.404Z,97785.72
2022-08-04T01:31:43.500Z,97787.50
2022-08-04T01:34:13.551Z,97781.41
2022-08-04T01:36:50.142Z,97781.41
2022-08-04T01:39:39.711Z,97785.25
2022-08-04T01:42:09.693Z,97788.63
2022-08-04T01:44:39.913Z,97785.38
2022-08-04T01:47:08.988Z,97789.75
2022-08-04T01:49:40.669Z,97789.25
2022-08-04T01:52:10.554Z,97786.81
2022-08-04T01:54:41.491Z,97777.69
2022-08-04T01:57:31.274Z,97788.28
2022-08-04T02:00:01.343Z,97771.75
2022-08-04T02:02:31.673Z,97775.25
2022-08-04T02:04:59.340Z,97780.53
2022-08-04T02:08:04.355Z,97774.72
2022-08-04T02:10:59.496Z,97778.09
2022-08-04T02:13:44.501Z,97776.78
2022-08-04T02:16:46.947Z,97776.13
2022-08-04T02:19:46.620Z,97775.50
2022-08-04T02:22:18.764Z,97773.25
2022-08-04T02:24:49.808Z,97773.25
2022-08-04T02:27:28.326Z,97772.16
2022-08-04T02:30:18.537Z,97773.41
2022-08-04T02:32:49.079Z,97770.97
2022-08-04T02:35:26.877Z,97766.00
2022-08-04T02:38:25.789Z,97767.59
2022-08-04T02:40:59.325Z,97763.16
2022-08-04T02:43:51.212Z,97762.19
2022-08-04T02:46:19.657Z,97762.69
2022-08-04T02:48:49.541Z,97762.34
2022-08-04T02:51:20.649Z,97764.63
2022-08-04T02:53:52.638Z,97756.94
2022-08-04T02:56:21.973Z,97758.38
2022-08-04T02:58:58.391Z,97757.25
2022-08-04T03:01:27.088Z,97757.06
2022-08-04T03:04:32.137Z,97758.00
2022-08-04T03:07:36.735Z,97758.50
2022-08-04T03:10:10.058Z,97762.53
2022-08-04T03:13:02.574Z,97759.59
2022-08-04T03:15:58.540Z,97761.34
2022-08-04T03:18:53.817Z,97766.31
2022-08-04T03:21:48.436Z,97767.25
2022-08-04T03:24:40.590Z,97774.13
2022-08-04T03:27:23.236Z,97766.75
2022-08-04T03:30:09.616Z,97765.22
2022-08-04T03:33:04.776Z,97767.75
2022-08-04T03:35:54.051Z,97761.22
2022-08-04T03:38:58.552Z,97766.31
2022-08-04T03:42:03.206Z,97771.28
2022-08-04T03:44:56.402Z,97765.03
2022-08-04T03:47:45.867Z,97763.97
2022-08-04T03:50:38.190Z,97770.59
2022-08-04T03:53:23.780Z,97765.41
2022-08-04T03:56:03.150Z,97760.44
2022-08-04T03:58:48.916Z,97768.31
2022-08-04T04:01:27.231Z,97762.97
2022-08-04T04:04:29.810Z,97764.09
2022-08-04T04:07:22.654Z,97766.69
2022-08-04T04:10:09.589Z,97766.09
2022-08-04T04:12:58.401Z,97766.75
2022-08-04T04:15:49.540Z,97766.16
2022-08-04T04:18:42.511Z,97766.25
2022-08-04T04:21:24.999Z,97770.72
2022-08-04T04:24:19.126Z,97768.50
2022-08-04T04:26:59.426Z,97763.81
2022-08-04T04:29:39.372Z,97768.06
2022-08-04T04:32:22.786Z,97768.81
2022-08-04T04:35:12.461Z,97773.75
2022-08-04T04:38:02.550Z,97763.38
2022-08-04T04:40:44.990Z,97769.06
2022-08-04T04:43:50.449Z,97767.56
2022-08-04T04:46:46.111Z,97768.47
2022-08-04T04:49:41.040Z,97773.22
2022-08-04T04:52:26.660Z,97778.47
2022-08-04T04:55:00.458Z,97780.56
2022-08-04T04:57:54.079Z,97783.34
2022-08-04T05:00:20.141Z,97779.47
2022-08-04T05:03:09.276Z,97782.44
2022-08-04T05:05:37.162Z,97787.44
2022-08-04T05:08:43.650Z,97779.97
2022-08-04T05:11:34.853Z,97783.88
2022-08-04T05:14:36.884Z,97787.13
2022-08-04T05:17:04.913Z,97784.06
2022-08-04T05:19:57.641Z,97787.16
2022-08-04T05:22:46.330Z,97782.97
2022-08-04T05:25:19.831Z,97782.75
2022-08-04T05:27:56.484Z,97779.78
2022-08-04T05:30:27.281Z,97778.03
2022-08-04T05:33:03.709Z,97781.47
2022-08-04T05:35:50.501Z,97783.88
2022-08-04T05:38:26.813Z,97781.22
2022-08-04T05:40:55.704Z,97779.34
2022-08-04T05:43:25.113Z,97776.50
2022-08-04T05:45:53.733Z,97786.81
2022-08-04T05:48:21.529Z,97783.59
2022-08-04T05:50:49.896Z,97780.94
2022-08-04T05:53:19.412Z,97789.84
2022-08-04T05:55:58.382Z,97787.69
2022-08-04T05:58:31.046Z,97792.19
2022-08-04T06:01:02.588Z,97781.47
2022-08-04T06:03:31.924Z,97781.09
2022-08-04T06:06:01.347Z,97790.34
2022-08-04T06:08:30.799Z,97787.03
2022-08-04T06:11:06.025Z,97790.56
2022-08-04T06:13:49.729Z,97788.78
2022-08-04T06:16:28.866Z,97791.97
2022-08-04T06:20:00.445Z,97783.59
2022-08-04T06:21:54.443Z,97790.25
2022-08-04T06:24:26.536Z,97793.56
2022-08-04T06:26:55.671Z,97790.81
2022-08-04T06:29:30.999Z,97794.06
2022-08-04T06:32:27.436Z,97793.25
2022-08-04T06:34:59.072Z,97792.88
2022-08-04T06:37:42.629Z,97796.22
2022-08-04T06:40:30.417Z,97802.03
2022-08-04T06:43:03.414Z,97796.44
2022-08-04T06:45:34.802Z,97799.75
2022-08-04T06:48:05.224Z,97799.84
2022-08-04T06:51:32.751Z,97794.50
2022-08-04T06:53:24.423Z,97799.84
2022-08-04T06:55:53.508Z,97794.41
2022-08-04T06:58:23.263Z,97796.22
2022-08-04T07:00:51.751Z,97795.72
2022-08-04T07:03:21.900Z,97789.69
2022-08-04T07:05:51.602Z,97795.91
2022-08-04T07:08:20.172Z,97795.69
2022-08-04T07:10:48.914Z,97794.22
2022-08-04T07:13:18.399Z,97785.28
2022-08-04T07:15:47.509Z,97794.28
2022-08-04T07:18:15.374Z,97793.59
2022-08-04T07:20:44.754Z,97794.94
2022-08-04T07:23:19.961Z,97797.66
2022-08-04T07:26:12.719Z,97784.06
2022-08-04T07:28:42.067Z,97790.66
2022-08-04T07:31:35.211Z,97778.69
2022-08-04T07:34:16.616Z,97788.06
2022-08-04T07:36:52.709Z,97784.13
2022-08-04T07:39:28.290Z,97776.22
2022-08-04T07:41:58.893Z,97782.81
2022-08-04T07:44:27.174Z,97784.63
2022-08-04T07:46:55.394Z,97784.53
2022-08-04T07:49:56.494Z,97783.16
2022-08-04T07:52:12.894Z,97768.13
2022-08-04T07:54:41.555Z,97767.94
2022-08-04T07:57:09.095Z,97767.53
2022-08-04T07:59:50.354Z,97777.28
2022-08-04T08:02:21.570Z,97768.59
2022-08-04T08:04:49.585Z,97769.97
2022-08-04T08:07:20.258Z,97763.28
2022-08-04T08:09:48.362Z,97763.72
2022-08-04T08:12:36.767Z,97750.28
2022-08-04T08:15:05.964Z,97755.06
2022-08-04T08:17:59.757Z,97754.25
2022-08-04T08:20:29.809Z,97750.88
2022-08-04T08:22:58.716Z,97750.81
2022-08-04T08:25:26.552Z,97750.78
2022-08-04T08:27:56.087Z,97753.69
2022-08-04T08:30:31.936Z,97750.06
2022-08-04T08:33:07.223Z,97754.97
2022-08-04T08:36:13.864Z,97751.38
2022-08-04T08:38:49.801Z,97750.56
2022-08-04T08:41:45.353Z,97757.84
2022-08-04T08:44:37.677Z,97748.69
2022-08-04T08:47:05.823Z,97749.94
2022-08-04T08:50:15.382Z,97747.41
2022-08-04T08:53:01.103Z,97752.63
2022-08-04T08:55:49.133Z,97750.03
2022-08-04T08:58:35.153Z,97750.88
2022-08-04T09:01:33.506Z,97752.00
2022-08-04T09:04:32.222Z,97752.56
2022-08-04T09:07:18.523Z,97751.44
2022-08-04T09:10:06.392Z,97748.63
2022-08-04T09:12:46.242Z,97749.13
2022-08-04T09:15:42.153Z,97753.47
2022-08-04T09:18:45.102Z,97754.06
2022-08-04T09:21:39.774Z,97758.16
2022-08-04T09:24:35.882Z,97755.69
2022-08-04T09:27:18.840Z,97749.44
2022-08-04T09:30:07.154Z,97756.97
2022-08-04T09:32:56.683Z,97749.72
2022-08-04T09:35:44.423Z,97752.97
2022-08-04T09:38:36.271Z,97748.13
2022-08-04T09:41:49.213Z,97748.78
2022-08-04T09:44:49.869Z,97743.75
2022-08-04T09:47:55.033Z,97745.81
2022-08-04T09:50:41.443Z,97742.28
2022-08-04T09:53:55.262Z,97739.19
2022-08-04T09:56:36.969Z,97742.75
2022-08-04T09:59:36.904Z,97739.97
2022-08-04T10:02:09.610Z,97742.66
2022-08-04T10:04:40.984Z,97755.31
2022-08-04T10:07:42.613Z,97742.63
2022-08-04T10:10:47.334Z,97740.06
2022-08-04T10:13:35.124Z,97735.84
2022-08-04T10:16:29.913Z,97737.50
2022-08-04T10:19:09.212Z,97733.00
2022-08-04T10:21:59.120Z,97737.34
2022-08-04T10:24:39.572Z,97737.06
2022-08-04T10:27:17.316Z,97735.25
2022-08-04T10:29:47.413Z,97736.78
2022-08-04T10:32:26.523Z,97731.25
2022-08-04T10:35:22.068Z,97731.50
2022-08-04T10:38:08.043Z,97723.03
2022-08-04T10:41:04.573Z,97717.63
2022-08-04T10:44:09.154Z,97727.28
2022-08-04T10:46:46.502Z,97715.66
2022-08-04T10:49:38.033Z,97723.75
2022-08-04T10:52:42.803Z,97726.38
2022-08-04T10:55:18.420Z,97722.88
2022-08-04T10:57:56.223Z,97721.84
2022-08-04T11:00:26.002Z,97724.91
2022-08-04T11:03:34.460Z,97719.16
2022-08-04T11:10:09.947Z,97704.34
2022-08-04T11:12:40.857Z,97698.59
2022-08-04T11:15:19.031Z,97706.78
2022-08-04T11:18:06.822Z,97715.84
2022-08-04T11:21:10.112Z,97715.69
2022-08-04T11:23:42.892Z,97714.13
2022-08-04T11:26:22.207Z,97713.38
2022-08-04T11:29:03.767Z,97713.78
2022-08-04T11:31:35.594Z,97715.50
2022-08-04T11:34:11.691Z,97722.06
2022-08-04T11:36:54.949Z,97712.47
2022-08-04T11:39:46.086Z,97715.38
2022-08-04T11:42:23.246Z,97710.78
2022-08-04T11:44:56.913Z,97714.88
2022-08-04T11:47:24.691Z,97707.47
2022-08-04T11:50:03.633Z,97715.13
2022-08-04T11:52:34.286Z,97721.78
2022-08-04T11:55:07.340Z,97711.78
2022-08-04T11:57:36.656Z,97707.47
2022-08-04T12:00:09.353Z,97716.41
2022-08-04T12:03:31.076Z,97719.16
2022-08-04T12:06:19.239Z,97711.63
2022-08-04T12:09:03.630Z,97705.97
2022-08-04T12:11:52.031Z,97700.84
2022-08-04T12:14:41.459Z,97699.72
2022-08-04T12:17:11.180Z,97707.44
2022-08-04T12:20:40.719Z,97703.50
2022-08-04T12:22:58.399Z,97707.56
2022-08-04T12:25:35.131Z,97700.88
2022-08-04T12:28:12.590Z,97702.66
2022-08-04T12:31:02.138Z,97697.88
2022-08-04T12:34:04.695Z,97695.44
2022-08-04T12:36:43.389Z,97688.63
2022-08-04T12:39:15.954Z,97688.25
2022-08-04T12:42:03.152Z,97684.44
2022-08-04T12:44:40.021Z,97687.78
2022-08-04T12:47:25.854Z,97691.84
2022-08-04T12:50:02.316Z,97692.38
2022-08-04T12:52:59.181Z,97684.38
2022-08-04T12:55:25.346Z,97681.97
2022-08-04T12:57:54.962Z,97686.69
2022-08-04T13:00:43.145Z,97684.56
2022-08-04T13:03:14.363Z,97676.75
2022-08-04T13:05:43.080Z,97666.78
2022-08-04T13:08:12.200Z,97670.88
2022-08-04T13:10:46.403Z,97663.19
2022-08-04T13:13:18.715Z,97672.28
2022-08-04T13:16:03.304Z,97669.66
2022-08-04T13:18:34.975Z,97660.38
2022-08-04T13:21:21.143Z,97653.63
2022-08-04T13:24:10.880Z,97647.63
2022-08-04T13:26:57.001Z,97649.66
2022-08-04T13:29:57.908Z,97650.78
2022-08-04T13:32:24.672Z,97647.44
2022-08-04T13:34:55.229Z,97643.41
2022-08-04T13:37:27.091Z,97651.22
2022-08-04T13:39:57.548Z,97648.22
2022-08-04T13:42:27.192Z,97656.03
2022-08-04T13:44:58.916Z,97655.16
2022-08-04T13:47:32.196Z,97648.28
2022-08-04T13:50:11.559Z,97650.72
2022-08-04T13:52:41.715Z,97651.06
2022-08-04T13:55:20.036Z,97638.75
2022-08-04T13:57:53.422Z,97635.50
2022-08-04T14:00:30.152Z,97635.97
2022-08-04T14:03:23.487Z,97635.47
2022-08-04T14:06:13.583Z,97624.63
2022-08-04T14:08:48.505Z,97618.06
2022-08-04T14:12:10.581Z,97617.19
2022-08-04T14:14:32.875Z,97617.72
2022-08-04T14:17:02.132Z,97618.53
2022-08-04T14:19:48.674Z,97614.75
2022-08-04T14:22:31.214Z,97614.25
2022-08-04T14:25:15.502Z,97608.06
2022-08-04T14:27:54.093Z,97618.44
2022-08-04T14:30:33.793Z,97616.88
2022-08-04T14:34:01.242Z,97610.38
2022-08-04T14:36:01.539Z,97605.53
2022-08-04T14:38:43.927Z,97606.22
2022-08-04T14:41:12.324Z,97606.81
2022-08-04T14:43:57.825Z,97605.69
2022-08-04T14:46:30.303Z,97605.50
2022-08-04T14:49:12.560Z,97597.97
2022-08-04T14:51:45.840Z,97596.41
2022-08-04T14:54:18.098Z,97597.94
2022-08-04T14:56:55.176Z,97598.72
2022-08-04T14:59:24.657Z,97597.19
2022-08-04T15:02:00.983Z,97598.97
2022-08-04T15:04:31.722Z,97596.06
2022-08-04T15:07:00.877Z,97594.16
2022-08-04T15:09:36.085Z,97595.81
2022-08-04T15:12:04.593Z,97589.84
2022-08-04T15:14:36.175Z,97584.28
2022-08-04T15:17:11.969Z,97591.06
2022-08-04T15:19:56.850Z,97587.16
2022-08-04T15:22:24.857Z,97584.78
2022-08-04T15:24:55.172Z,97582.81
2022-08-04T15:27:27.594Z,97597.41
2022-08-04T15:30:01.912Z,97585.19
2022-08-04T15:32:37.493Z,97585.59
2022-08-04T15:35:13.095Z,97581.66
2022-08-04T15:37:46.413Z,97572.88
2022-08-04T15:40:33.109Z,97585.88
2022-08-04T15:43:22.784Z,97575.22
2022-08-04T15:46:02.146Z,97569.69
2022-08-04T15:48:40.936Z,97574.06
2022-08-04T15:51:14.177Z,97574.38
2022-08-04T15:54:02.198Z,97573.59
2022-08-04T15:56:29.989Z,97574.72
2022-08-04T15:58:57.783Z,97573.91
2022-08-04T16:01:27.764Z,97575.41
2022-08-04T16:04:01.255Z,97570.63
2022-08-04T16:06:30.484Z,97569.75
2022-08-04T16:09:00.346Z,97564.59
2022-08-04T16:11:33.061Z,97568.63
2022-08-04T16:14:03.622Z,97560.34
2022-08-04T16:16:37.128Z,97560.25
2022-08-04T16:19:21.097Z,97566.97
2022-08-04T16:21:50.154Z,97564.56
2022-08-04T16:24:21.686Z,97563.78
2022-08-04T16:27:00.649Z,97564.59
2022-08-04T16:29:31.137Z,97565.00
2022-08-04T16:32:05.065Z,97564.59
2022-08-04T16:34:55.628Z,97568.53
2022-08-04T16:37:29.923Z,97559.38
2022-08-04T16:40:35.124Z,97553.25
2022-08-04T16:43:09.942Z,97561.97
2022-08-04T16:45:41.593Z,97557.22
2022-08-04T16:48:10.695Z,97557.41
2022-08-04T16:50:57.314Z,97556.28
2022-08-04T16:53:52.672Z,97556.19
2022-08-04T16:56:34.508Z,97551.44
2022-08-04T16:59:13.221Z,97549.41
2022-08-04T17:01:50.067Z,97549.50
2022-08-04T17:04:18.392Z,97549.72
2022-08-04T17:06:49.569Z,97548.09
2022-08-04T17:09:19.070Z,97553.53
2022-08-04T17:11:48.165Z,97558.19
2022-08-04T17:14:25.570Z,97547.00
2022-08-04T17:16:56.203Z,97548.50
2022-08-04T17:19:26.535Z,97544.44
2022-08-04T17:22:06.026Z,97549.97
2022-08-04T17:24:35.771Z,97547.22
2022-08-04T17:27:04.364Z,97547.94
2022-08-04T17:29:51.447Z,97544.72
2022-08-04T17:32:22.070Z,97542.00
2022-08-04T17:34:52.199Z,97543.06
2022-08-04T17:37:40.639Z,97546.97
2022-08-04T17:40:13.170Z,97551.19
2022-08-04T17:42:42.464Z,97556.63
2022-08-04T17:45:51.368Z,97541.50
2022-08-04T17:48:09.280Z,97551.66
2022-08-04T17:50:43.475Z,97552.72
2022-08-04T17:53:12.970Z,97550.69
2022-08-04T17:55:49.610Z,97543.47
2022-08-04T17:58:21.423Z,97550.44
2022-08-04T18:03:52.924Z,97553.31
2022-08-04T18:06:23.313Z,97545.31
2022-08-04T18:08:59.071Z,97551.13
2022-08-04T18:11:59.323Z,97547.78
2022-08-04T18:14:29.194Z,97552.84
2022-08-04T18:16:56.960Z,97546.41
2022-08-04T18:19:24.563Z,97548.13
2022-08-04T18:21:59.691Z,97540.09
2022-08-04T18:24:35.058Z,97540.69
2022-08-04T18:27:20.095Z,97546.47
2022-08-04T18:30:15.090Z,97542.84
2022-08-04T18:32:35.803Z,97551.28
2022-08-04T18:35:05.281Z,97549.63
2022-08-04T18:38:06.106Z,97556.06
2022-08-04T18:40:30.116Z,97557.38
2022-08-04T18:43:03.663Z,97546.94
2022-08-04T18:45:34.346Z,97558.50
2022-08-04T18:48:14.229Z,97565.44
2022-08-04T18:51:11.237Z,97561.72
2022-08-04T18:53:34.911Z,97562.38
2022-08-04T18:56:06.359Z,97563.09
2022-08-04T18:58:48.508Z,97561.25
2022-08-04T19:01:16.159Z,97563.03
2022-08-04T19:03:44.095Z,97563.31
2022-08-04T19:06:14.412Z,97556.94
2022-08-04T19:08:45.199Z,97569.63
2022-08-04T19:11:37.287Z,97567.59
2022-08-04T19:14:02.648Z,97561.47
2022-08-04T19:16:33.026Z,97565.66
2022-08-04T19:19:05.635Z,97562.81
2022-08-04T19:22:00.317Z,97567.44
2022-08-04T19:24:31.146Z,97572.03
2022-08-04T19:27:06.712Z,97572.59
2022-08-04T19:29:42.915Z,97576.63
2022-08-04T19:32:14.632Z,97573.22
2022-08-04T19:34:47.261Z,97570.03
2022-08-04T19:40:07.597Z,97565.41
2022-08-04T19:42:37.504Z,97571.59
2022-08-04T19:45:06.422Z,97563.03
2022-08-04T19:48:17.829Z,97567.28
2022-08-04T19:50:23.922Z,97563.28
2022-08-04T19:52:52.883Z,97565.16
2022-08-04T19:55:36.828Z,97561.50
2022-08-04T19:58:08.637Z,97567.59
2022-08-04T20:00:38.111Z,97567.06
2022-08-04T20:03:11.849Z,97571.75
2022-08-04T20:05:54.952Z,97564.22
2022-08-04T20:08:26.824Z,97558.66
2022-08-04T20:10:56.481Z,97569.16
2022-08-04T20:13:36.913Z,97570.88
2022-08-04T20:16:29.542Z,97566.09
2022-08-04T20:19:00.794Z,97565.91
2022-08-04T20:24:39.068Z,97567.09
2022-08-04T20:27:16.231Z,97559.22
2022-08-04T20:29:46.116Z,97564.56
2022-08-04T20:32:19.427Z,97569.63
2022-08-04T20:34:48.632Z,97565.53
2022-08-04T20:37:16.387Z,97563.50
2022-08-04T20:39:44.339Z,97567.47
2022-08-04T20:42:12.388Z,97571.00
2022-08-04T20:44:46.221Z,97560.38
2022-08-04T20:47:14.213Z,97564.09
2022-08-04T20:49:42.690Z,97565.22
2022-08-04T20:52:16.397Z,97560.41
2022-08-04T20:54:58.222Z,97564.66
2022-08-04T20:57:48.681Z,97562.72
2022-08-04T21:00:14.148Z,97557.59
2022-08-04T21:02:41.808Z,97556.44
2022-08-04T21:05:12.139Z,97561.00
2022-08-04T21:07:43.950Z,97569.22
2022-08-04T21:13:04.362Z,97562.16
2022-08-04T21:15:57.757Z,97557.81
2022-08-04T21:18:29.190Z,97569.88
2022-08-04T21:20:56.829Z,97564.41
2022-08-04T21:23:24.364Z,97562.81
2022-08-04T21:26:03.110Z,97565.00
2022-08-04T21:28:31.971Z,97568.44
2022-08-04T21:31:02.546Z,97567.97
2022-08-04T21:33:50.710Z,97567.28
2022-08-04T21:36:20.196Z,97555.31
2022-08-04T21:38:51.787Z,97568.66
2022-08-04T21:41:25.030Z,97566.16
2022-08-04T21:43:55.139Z,97567.75
2022-08-04T21:46:23.104Z,97554.75
2022-08-04T21:48:51.080Z,97557.50
2022-08-04T21:51:58.432Z,97557.72
2022-08-04T21:54:16.955Z,97564.66
2022-08-04T21:56:50.800Z,97561.50
2022-08-04T21:59:28.531Z,97553.28
2022-08-04T22:02:01.298Z,97556.03
2022-08-04T22:04:30.658Z,97553.16
2022-08-04T22:06:58.430Z,97552.03
2022-08-04T22:09:31.237Z,97550.88
2022-08-04T22:12:10.418Z,97553.16
2022-08-04T22:14:40.619Z,97544.25
2022-08-04T22:17:13.833Z,97548.59
2022-08-04T22:19:54.767Z,97537.31
2022-08-04T22:22:29.146Z,97542.44
2022-08-04T22:25:06.265Z,97546.19
2022-08-04T22:28:01.036Z,97544.84
2022-08-04T22:30:36.757Z,97542.22
2022-08-04T22:33:07.653Z,97537.09
2022-08-04T22:35:49.072Z,97541.88
2022-08-04T22:38:24.121Z,97542.56
2022-08-04T22:41:01.880Z,97538.94
2022-08-04T22:43:33.101Z,97538.13
2022-08-04T22:46:05.347Z,97538.47
2022-08-04T22:48:36.549Z,97545.09
2022-08-04T22:51:05.918Z,97535.97
2022-08-04T22:53:35.792Z,97539.84
2022-08-04T22:56:10.225Z,97543.38
2022-08-04T22:58:51.221Z,97543.72
2022-08-04T23:01:19.448Z,97542.75
2022-08-04T23:03:55.595Z,97539.44
2022-08-04T23:06:28.313Z,97537.19
2022-08-04T23:08:57.886Z,97539.44
2022-08-04T23:11:36.721Z,97540.72
2022-08-04T23:14:10.611Z,97538.53
2022-08-04T23:16:40.617Z,97533.44
2022-08-04T23:19:12.166Z,97535.03
2022-08-04T23:21:47.351Z,97537.75
2022-08-04T23:24:15.577Z,97534.66
2022-08-04T23:26:43.230Z,97533.28
2022-08-04T23:29:10.752Z,97538.22
2022-08-04T23:31:40.756Z,97533.63
2022-08-04T23:34:12.041Z,97536.09
2022-08-04T23:36:40.861Z,97524.84
2022-08-04T23:39:10.494Z,97531.78
2022-08-04T23:41:54.589Z,97520.38
2022-08-04T23:44:26.719Z,97524.25
2022-08-04T23:47:01.913Z,97518.34
2022-08-04T23:49:43.482Z,97515.59
2022-08-04T23:52:23.224Z,97519.47
2022-08-04T23:54:56.111Z,97516.28
2022-08-04T23:57:23.622Z,97521.06
2022-08-04T23:59:55.008Z,97527.34
